createdAt,value
2022-11-23T00:00:49.614Z,10.42
2022-11-23T00:03:22.160Z,10.41
2022-11-23T00:05:54.960Z,10.49
2022-11-23T00:08:28.918Z,10.46
2022-11-23T00:11:01.960Z,10.50
2022-11-23T00:13:35.186Z,10.46
2022-11-23T00:16:07.971Z,10.51
2022-11-23T00:18:40.771Z,10.45
2022-11-23T00:21:14.295Z,10.46
2022-11-23T00:23:48.245Z,10.46
2022-11-23T00:26:22.672Z,10.48
2022-11-23T00:28:55.287Z,10.49
2022-11-23T00:31:32.569Z,10.40
2022-11-23T00:34:05.152Z,10.47
2022-11-23T00:36:38.200Z,10.49
2022-11-23T00:39:12.423Z,10.45
2022-11-23T00:41:47.052Z,10.49
2022-11-23T00:44:19.633Z,10.60
2022-11-23T00:46:52.357Z,10.47
2022-11-23T00:49:24.947Z,10.43
2022-11-23T00:51:59.138Z,10.48
2022-11-23T00:54:33.220Z,10.49
2022-11-23T00:57:06.225Z,10.48
2022-11-23T00:59:39.028Z,10.42
2022-11-23T01:02:11.685Z,10.53
2022-11-23T01:04:44.420Z,10.50
2022-11-23T01:07:17.414Z,10.50
2022-11-23T01:09:51.460Z,10.52
2022-11-23T01:12:26.238Z,10.45
2022-11-23T01:14:58.869Z,10.57
2022-11-23T01:17:31.541Z,10.63
2022-11-23T01:20:04.510Z,10.56
2022-11-23T01:22:37.154Z,10.60
2022-11-23T01:25:11.261Z,10.62
2022-11-23T01:27:44.621Z,10.61
2022-11-23T01:30:17.407Z,10.56
2022-11-23T01:32:50.023Z,10.55
2022-11-23T01:35:24.215Z,10.50
2022-11-23T01:37:57.823Z,10.48
2022-11-23T01:40:31.829Z,10.58
2022-11-23T01:43:08.249Z,10.49
2022-11-23T01:45:42.401Z,10.46
2022-11-23T01:48:17.518Z,10.53
2022-11-23T01:50:52.616Z,10.54
2022-11-23T01:53:26.127Z,10.60
2022-11-23T01:56:00.964Z,10.60
2022-11-23T01:58:35.246Z,10.58
2022-11-23T02:01:10.069Z,10.51
2022-11-23T02:03:47.792Z,10.52
2022-11-23T02:06:23.934Z,10.46
2022-11-23T02:08:56.856Z,10.50
2022-11-23T02:11:30.913Z,10.54
2022-11-23T02:14:03.534Z,10.53
2022-11-23T02:16:36.997Z,10.51
2022-11-23T02:19:13.803Z,10.56
2022-11-23T02:21:46.498Z,10.57
2022-11-23T02:24:21.704Z,10.60
2022-11-23T02:26:56.078Z,10.56
2022-11-23T02:29:29.850Z,10.61
2022-11-23T02:32:06.482Z,10.58
2022-11-23T02:34:39.243Z,10.60
2022-11-23T02:37:11.851Z,10.60
2022-11-23T02:39:47.177Z,10.53
2022-11-23T02:45:18.464Z,10.57
2022-11-23T02:47:53.069Z,10.65
2022-11-23T02:50:26.018Z,10.59
2022-11-23T02:52:58.734Z,10.57
2022-11-23T02:55:31.339Z,10.54
2022-11-23T02:58:08.169Z,10.64
2022-11-23T03:00:40.858Z,10.56
2022-11-23T03:03:13.532Z,10.54
2022-11-23T03:05:46.137Z,10.54
2022-11-23T03:08:18.982Z,10.48
2022-11-23T03:10:52.157Z,10.62
2022-11-23T03:13:27.296Z,10.46
2022-11-23T03:16:00.098Z,10.59
2022-11-23T03:18:32.713Z,10.54
2022-11-23T03:21:05.974Z,10.57
2022-11-23T03:23:38.770Z,10.46
2022-11-23T03:26:13.736Z,10.57
2022-11-23T03:28:59.514Z,10.50
2022-11-23T03:31:35.167Z,10.61
2022-11-23T03:34:07.794Z,10.53
2022-11-23T03:36:41.414Z,10.56
2022-11-23T03:39:14.678Z,10.58
2022-11-23T03:41:57.218Z,10.60
2022-11-23T03:44:37.861Z,10.58
2022-11-23T03:47:12.090Z,10.63
2022-11-23T03:49:44.653Z,10.58
2022-11-23T03:52:17.498Z,10.61
2022-11-23T03:54:50.578Z,10.66
2022-11-23T03:57:23.480Z,10.72
2022-11-23T03:59:57.377Z,10.65
2022-11-23T04:02:30.552Z,10.65
2022-11-23T04:05:13.288Z,10.64
2022-11-23T04:08:05.061Z,10.65
2022-11-23T04:10:37.838Z,10.64
2022-11-23T04:13:20.589Z,10.67
2022-11-23T04:15:54.814Z,10.64
2022-11-23T04:18:30.023Z,10.65
2022-11-23T04:21:02.726Z,10.66
2022-11-23T04:23:35.921Z,10.67
2022-11-23T04:26:10.494Z,10.62
2022-11-23T04:28:46.844Z,10.59
2022-11-23T04:31:21.294Z,10.49
2022-11-23T04:34:05.867Z,10.59
2022-11-23T04:36:39.389Z,10.61
2022-11-23T04:39:14.391Z,10.57
2022-11-23T04:42:13.616Z,10.54
2022-11-23T04:44:52.526Z,10.57
2022-11-23T04:47:26.943Z,10.47
2022-11-23T04:50:02.040Z,10.49
2022-11-23T04:52:34.902Z,10.49
2022-11-23T04:55:10.688Z,10.46
2022-11-23T04:57:51.261Z,10.43
2022-11-23T05:00:24.173Z,10.42
2022-11-23T05:03:02.043Z,10.50
2022-11-23T05:05:38.926Z,10.44
2022-11-23T05:08:11.494Z,10.53
2022-11-23T05:11:07.328Z,10.51
2022-11-23T05:13:40.229Z,10.53
2022-11-23T05:16:13.082Z,10.46
2022-11-23T05:18:47.699Z,10.46
2022-11-23T05:21:20.293Z,10.43
2022-11-23T05:23:53.959Z,10.54
2022-11-23T05:26:26.584Z,10.50
2022-11-23T05:29:00.815Z,10.46
2022-11-23T05:31:33.709Z,10.43
2022-11-23T05:34:09.986Z,10.42
2022-11-23T05:36:50.423Z,10.43
2022-11-23T05:39:24.786Z,10.48
2022-11-23T05:41:58.860Z,10.43
2022-11-23T05:44:39.177Z,10.46
2022-11-23T05:47:17.569Z,10.46
2022-11-23T05:49:51.706Z,10.40
2022-11-23T05:52:28.347Z,10.34
2022-11-23T05:55:01.038Z,10.37
2022-11-23T05:57:34.877Z,10.43
2022-11-23T06:00:10.552Z,10.31
2022-11-23T06:02:45.712Z,10.38
2022-11-23T06:05:20.400Z,10.23
2022-11-23T06:07:55.462Z,10.31
2022-11-23T06:10:32.479Z,10.34
2022-11-23T06:13:05.395Z,10.30
2022-11-23T06:15:39.526Z,10.26
2022-11-23T06:18:12.634Z,10.31
2022-11-23T06:20:52.884Z,10.22
2022-11-23T06:23:25.593Z,10.27
2022-11-23T06:26:00.823Z,10.20
2022-11-23T06:28:37.362Z,10.20
2022-11-23T06:31:13.439Z,10.15
2022-11-23T06:33:47.041Z,10.17
2022-11-23T06:36:21.228Z,10.20
2022-11-23T06:38:56.039Z,10.22
2022-11-23T06:41:32.382Z,10.18
2022-11-23T06:44:06.961Z,10.17
2022-11-23T06:46:45.231Z,10.15
2022-11-23T06:49:19.820Z,10.16
2022-11-23T06:52:04.187Z,10.18
2022-11-23T06:54:36.857Z,10.19
2022-11-23T06:57:09.841Z,10.13
2022-11-23T06:59:45.741Z,10.06
2022-11-23T07:02:20.200Z,10.10
2022-11-23T07:04:53.113Z,10.06
2022-11-23T07:07:27.504Z,10.10
2022-11-23T07:10:09.947Z,10.04
2022-11-23T07:12:50.330Z,10.14
2022-11-23T07:15:26.075Z,10.08
2022-11-23T07:17:59.302Z,10.13
2022-11-23T07:20:31.956Z,10.09
2022-11-23T07:23:06.752Z,10.12
2022-11-23T07:25:39.620Z,10.14
2022-11-23T07:28:13.429Z,10.05
2022-11-23T07:30:46.069Z,10.12
2022-11-23T07:33:23.648Z,10.01
2022-11-23T07:35:57.215Z,10.06
2022-11-23T07:38:31.524Z,10.09
2022-11-23T07:41:05.869Z,10.13
2022-11-23T07:43:55.868Z,10.13
2022-11-23T07:46:28.532Z,10.08
2022-11-23T07:49:02.254Z,10.04
2022-11-23T07:51:37.707Z,10.01
2022-11-23T07:54:11.933Z,10.08
2022-11-23T07:56:44.825Z,10.07
2022-11-23T07:59:17.416Z,10.16
2022-11-23T08:01:55.613Z,10.11
2022-11-23T08:04:31.227Z,10.23
2022-11-23T08:07:04.304Z,10.25
2022-11-23T08:09:40.673Z,10.21
2022-11-23T08:12:13.228Z,10.16
2022-11-23T08:14:45.965Z,10.16
2022-11-23T08:17:18.525Z,10.11
2022-11-23T08:19:51.189Z,10.18
2022-11-23T08:22:23.699Z,10.23
2022-11-23T08:24:57.941Z,10.23
2022-11-23T08:27:30.494Z,10.16
2022-11-23T08:30:03.125Z,10.15
2022-11-23T08:32:36.417Z,10.09
2022-11-23T08:35:09.134Z,10.11
2022-11-23T08:37:41.763Z,10.14
2022-11-23T08:40:20.660Z,10.16
2022-11-23T08:42:56.287Z,10.17
2022-11-23T08:45:29.138Z,10.17
2022-11-23T08:48:02.059Z,10.16
2022-11-23T08:50:35.526Z,10.17
2022-11-23T08:53:08.325Z,10.15
2022-11-23T08:55:42.199Z,10.14
2022-11-23T08:58:14.787Z,10.12
2022-11-23T09:00:47.813Z,10.13
2022-11-23T09:03:20.512Z,10.15
2022-11-23T09:05:54.532Z,10.15
2022-11-23T09:08:27.072Z,10.14
2022-11-23T09:11:02.015Z,10.17
2022-11-23T09:13:36.961Z,10.17
2022-11-23T09:16:09.763Z,10.18
2022-11-23T09:18:42.804Z,10.16
2022-11-23T09:21:15.529Z,10.22
2022-11-23T09:23:48.091Z,10.31
2022-11-23T09:26:22.033Z,10.28
2022-11-23T09:28:54.854Z,10.22
2022-11-23T09:31:28.882Z,10.29
2022-11-23T09:34:02.017Z,10.34
2022-11-23T09:36:34.703Z,10.33
2022-11-23T09:39:07.282Z,10.29
2022-11-23T09:42:02.524Z,10.36
2022-11-23T09:44:43.166Z,10.38
2022-11-23T09:47:24.884Z,10.31
2022-11-23T09:50:03.070Z,10.23
2022-11-23T09:52:36.403Z,10.20
2022-11-23T09:55:14.783Z,10.20
2022-11-23T09:57:50.163Z,10.25
2022-11-23T10:00:23.700Z,10.30
2022-11-23T10:02:56.215Z,10.35
2022-11-23T10:05:32.682Z,10.35
2022-11-23T10:08:07.522Z,10.23
2022-11-23T10:10:42.544Z,10.08
2022-11-23T10:13:27.545Z,10.22
2022-11-23T10:16:09.740Z,10.16
2022-11-23T10:18:48.256Z,10.29
2022-11-23T10:21:26.216Z,10.30
2022-11-23T10:24:05.699Z,10.32
2022-11-23T10:26:40.439Z,10.41
2022-11-23T10:29:16.658Z,10.20
2022-11-23T10:31:55.481Z,10.32
2022-11-23T10:34:44.180Z,10.24
2022-11-23T10:37:17.543Z,10.46
2022-11-23T10:39:50.190Z,10.38
2022-11-23T10:42:25.625Z,10.42
2022-11-23T10:45:00.676Z,10.42
2022-11-23T10:47:38.180Z,10.47
2022-11-23T10:50:25.242Z,10.40
2022-11-23T10:52:59.212Z,10.41
2022-11-23T10:55:33.138Z,10.48
2022-11-23T10:58:05.979Z,10.58
2022-11-23T11:00:43.758Z,10.70
2022-11-23T11:03:23.653Z,10.65
2022-11-23T11:06:13.919Z,10.66
2022-11-23T11:08:50.853Z,10.72
2022-11-23T11:11:25.308Z,10.72
2022-11-23T11:14:05.514Z,10.81
2022-11-23T11:16:47.786Z,10.81
2022-11-23T11:19:27.343Z,10.84
2022-11-23T11:22:01.166Z,10.87
2022-11-23T11:24:35.369Z,10.89
2022-11-23T11:27:14.418Z,10.93
2022-11-23T11:29:48.640Z,10.96
2022-11-23T11:32:26.821Z,11.02
2022-11-23T11:35:02.497Z,11.03
2022-11-23T11:37:37.204Z,10.97
2022-11-23T11:40:14.957Z,10.98
2022-11-23T11:42:51.567Z,10.97
2022-11-23T11:45:26.530Z,11.01
2022-11-23T11:48:04.215Z,11.03
2022-11-23T11:50:39.949Z,11.02
2022-11-23T11:53:14.946Z,11.09
2022-11-23T11:55:50.802Z,11.06
2022-11-23T11:58:25.271Z,11.09
2022-11-23T12:01:01.312Z,11.13
2022-11-23T12:03:39.114Z,11.18
2022-11-23T12:06:14.152Z,11.21
2022-11-23T12:08:49.986Z,11.23
2022-11-23T12:11:23.011Z,11.19
2022-11-23T12:14:02.749Z,11.16
2022-11-23T12:16:41.207Z,11.13
2022-11-23T12:19:18.666Z,11.22
2022-11-23T12:22:07.675Z,11.18
2022-11-23T12:24:54.746Z,11.16
2022-11-23T12:27:32.441Z,11.21
2022-11-23T12:30:16.351Z,11.26
2022-11-23T12:32:59.522Z,11.24
2022-11-23T12:35:47.142Z,11.24
2022-11-23T12:38:26.858Z,11.21
2022-11-23T12:41:08.112Z,11.19
2022-11-23T12:43:47.944Z,11.18
2022-11-23T12:46:25.346Z,11.19
2022-11-23T12:49:03.816Z,11.13
2022-11-23T12:51:46.578Z,11.10
2022-11-23T12:54:39.157Z,11.10
2022-11-23T12:57:16.562Z,11.09
2022-11-23T12:59:52.298Z,11.07
2022-11-23T13:02:43.629Z,11.05
2022-11-23T13:05:28.083Z,11.06
2022-11-23T13:08:07.756Z,10.98
2022-11-23T13:10:46.557Z,11.06
2022-11-23T13:13:27.356Z,11.02
2022-11-23T13:16:15.777Z,11.06
2022-11-23T13:19:01.575Z,10.94
2022-11-23T13:21:38.439Z,10.94
2022-11-23T13:24:35.281Z,11.01
2022-11-23T13:27:32.421Z,10.99
2022-11-23T13:30:10.994Z,10.85
2022-11-23T13:32:55.042Z,10.85
2022-11-23T13:35:46.158Z,10.86
2022-11-23T13:38:19.682Z,10.89
2022-11-23T13:40:52.445Z,10.74
2022-11-23T13:43:29.551Z,10.70
2022-11-23T13:46:28.810Z,10.69
2022-11-23T13:49:01.676Z,10.75
2022-11-23T13:51:35.967Z,10.89
2022-11-23T13:54:22.149Z,10.85
2022-11-23T13:56:58.774Z,10.91
2022-11-23T13:59:34.748Z,10.91
2022-11-23T14:02:28.526Z,10.73
2022-11-23T14:05:19.967Z,10.86
2022-11-23T14:07:53.106Z,10.80
2022-11-23T14:10:26.706Z,10.72
2022-11-23T14:13:02.013Z,10.71
2022-11-23T14:15:37.890Z,10.77
2022-11-23T14:18:37.228Z,10.74
2022-11-23T14:21:14.046Z,10.82
2022-11-23T14:23:53.797Z,10.75
2022-11-23T14:26:34.858Z,10.85
2022-11-23T14:29:18.477Z,10.87
2022-11-23T14:32:02.143Z,10.87
2022-11-23T14:34:37.388Z,10.92
2022-11-23T14:37:15.597Z,10.89
2022-11-23T14:39:59.457Z,10.77
2022-11-23T14:42:33.071Z,10.78
2022-11-23T14:45:08.050Z,10.84
2022-11-23T14:47:42.328Z,10.73
2022-11-23T14:50:25.388Z,10.86
2022-11-23T14:53:00.248Z,10.89
2022-11-23T14:55:35.038Z,10.83
2022-11-23T14:58:09.100Z,10.83
2022-11-23T15:00:43.458Z,10.83
2022-11-23T15:03:49.888Z,10.89
2022-11-23T15:06:15.799Z,10.84
2022-11-23T15:08:54.115Z,10.86
2022-11-23T15:11:29.261Z,10.81
2022-11-23T15:14:05.612Z,10.75
2022-11-23T15:16:44.881Z,10.84
2022-11-23T15:19:28.500Z,10.77
2022-11-23T15:22:01.451Z,10.85
2022-11-23T15:24:35.107Z,10.86
2022-11-23T15:27:12.729Z,10.86
2022-11-23T15:29:52.482Z,10.84
2022-11-23T15:32:32.041Z,10.76
2022-11-23T15:35:13.404Z,10.87
2022-11-23T15:37:47.256Z,10.79
2022-11-23T15:40:23.519Z,10.84
2022-11-23T15:43:00.220Z,10.86
2022-11-23T15:45:36.696Z,10.87
2022-11-23T15:48:12.060Z,10.77
2022-11-23T15:50:55.111Z,10.85
2022-11-23T15:53:31.436Z,10.88
2022-11-23T15:56:05.845Z,10.87
2022-11-23T15:58:51.841Z,10.83
2022-11-23T16:01:26.012Z,10.83
2022-11-23T16:04:05.057Z,10.77
2022-11-23T16:06:44.534Z,10.79
2022-11-23T16:09:53.946Z,10.88
2022-11-23T16:12:28.797Z,10.89
2022-11-23T16:15:18.267Z,10.84
2022-11-23T16:17:51.723Z,10.86
2022-11-23T16:20:26.327Z,10.87
2022-11-23T16:23:01.569Z,10.87
2022-11-23T16:25:34.940Z,10.88
2022-11-23T16:28:16.148Z,10.78
2022-11-23T16:30:49.103Z,10.94
2022-11-23T16:33:22.183Z,10.89
2022-11-23T16:35:55.104Z,10.87
2022-11-23T16:38:33.604Z,10.87
2022-11-23T16:41:06.368Z,10.89
2022-11-23T16:43:39.146Z,10.91
2022-11-23T16:46:13.847Z,10.90
2022-11-23T16:48:46.948Z,10.83
2022-11-23T16:51:19.844Z,10.83
2022-11-23T16:54:13.029Z,10.77
2022-11-23T16:56:49.903Z,10.81
2022-11-23T16:59:23.986Z,10.74
2022-11-23T17:02:00.454Z,10.73
2022-11-23T17:04:35.504Z,10.74
2022-11-23T17:07:08.865Z,10.79
2022-11-23T17:09:42.926Z,10.76
2022-11-23T17:12:16.967Z,10.75
2022-11-23T17:14:50.615Z,10.72
2022-11-23T17:17:26.920Z,10.73
2022-11-23T17:20:04.708Z,10.60
2022-11-23T17:22:40.642Z,10.66
2022-11-23T17:25:15.441Z,10.58
2022-11-23T17:27:48.546Z,10.60
2022-11-23T17:30:22.095Z,10.61
2022-11-23T17:32:55.191Z,10.63
2022-11-23T17:35:30.016Z,10.75
2022-11-23T17:38:09.527Z,10.70
2022-11-23T17:40:47.243Z,10.65
2022-11-23T17:43:25.510Z,10.61
2022-11-23T17:46:00.481Z,10.59
2022-11-23T17:48:34.024Z,10.63
2022-11-23T17:51:15.247Z,10.58
2022-11-23T17:54:00.835Z,10.60
2022-11-23T17:56:36.789Z,10.49
2022-11-23T17:59:10.271Z,10.52
2022-11-23T18:01:43.328Z,10.49
2022-11-23T18:04:16.255Z,10.51
2022-11-23T18:06:50.810Z,10.48
2022-11-23T18:09:23.763Z,10.55
2022-11-23T18:11:58.034Z,10.52
2022-11-23T18:14:30.869Z,10.45
2022-11-23T18:17:03.792Z,10.47
2022-11-23T18:19:39.108Z,10.44
2022-11-23T18:22:13.654Z,10.41
2022-11-23T18:24:47.381Z,10.43
2022-11-23T18:27:24.368Z,10.46
2022-11-23T18:29:57.472Z,10.44
2022-11-23T18:32:30.338Z,10.44
2022-11-23T18:35:05.243Z,10.46
2022-11-23T18:37:41.115Z,10.49
2022-11-23T18:40:15.487Z,10.61
2022-11-23T18:42:49.667Z,10.50
2022-11-23T18:45:24.732Z,10.52
2022-11-23T18:47:57.449Z,10.61
2022-11-23T18:50:30.155Z,10.63
2022-11-23T18:53:02.871Z,10.57
2022-11-23T18:55:38.035Z,10.58
2022-11-23T18:58:16.697Z,10.61
2022-11-23T19:00:50.155Z,10.60
2022-11-23T19:03:23.238Z,10.50
2022-11-23T19:06:02.265Z,10.54
2022-11-23T19:08:41.753Z,10.49
2022-11-23T19:11:18.135Z,10.63
2022-11-23T19:13:53.054Z,10.53
2022-11-23T19:16:26.970Z,10.50
2022-11-23T19:19:01.802Z,10.57
2022-11-23T19:21:43.312Z,10.50
2022-11-23T19:24:18.430Z,10.43
2022-11-23T19:26:56.911Z,10.57
2022-11-23T19:29:31.260Z,10.64
2022-11-23T19:32:08.323Z,10.48
2022-11-23T19:34:43.424Z,10.48
2022-11-23T19:37:18.905Z,10.55
2022-11-23T19:39:51.622Z,10.61
2022-11-23T19:42:24.342Z,10.54
2022-11-23T19:44:59.366Z,10.54
2022-11-23T19:47:34.614Z,10.65
2022-11-23T19:50:07.672Z,10.64
2022-11-23T19:53:10.014Z,10.56
2022-11-23T19:55:33.195Z,10.56
2022-11-23T19:58:05.765Z,10.43
2022-11-23T20:00:40.408Z,10.44
2022-11-23T20:03:17.594Z,10.47
2022-11-23T20:05:56.806Z,10.49
2022-11-23T20:08:29.760Z,10.44
2022-11-23T20:11:07.506Z,10.42
2022-11-23T20:13:42.892Z,10.43
2022-11-23T20:16:20.082Z,10.51
2022-11-23T20:18:59.127Z,10.32
2022-11-23T20:21:32.525Z,10.37
2022-11-23T20:24:06.472Z,10.44
2022-11-23T20:26:39.387Z,10.45
2022-11-23T20:29:16.446Z,10.40
2022-11-23T20:31:51.624Z,10.45
2022-11-23T20:34:26.430Z,10.35
2022-11-23T20:37:00.981Z,10.34
2022-11-23T20:39:38.015Z,10.43
2022-11-23T20:42:11.743Z,10.42
2022-11-23T20:44:44.627Z,10.36
2022-11-23T20:47:22.424Z,10.34
2022-11-23T20:49:55.318Z,10.35
2022-11-23T20:52:28.055Z,10.35
2022-11-23T20:55:00.688Z,10.26
2022-11-23T20:57:34.547Z,10.38
2022-11-23T21:00:10.806Z,10.38
2022-11-23T21:02:45.308Z,10.34
2022-11-23T21:05:21.561Z,10.43
2022-11-23T21:07:54.454Z,10.45
2022-11-23T21:10:44.529Z,10.40
2022-11-23T21:13:49.335Z,10.43
2022-11-23T21:16:25.006Z,10.33
2022-11-23T21:19:00.957Z,10.41
2022-11-23T21:21:33.869Z,10.44
2022-11-23T21:24:07.875Z,10.42
2022-11-23T21:26:40.693Z,10.38
2022-11-23T21:29:16.556Z,10.41
2022-11-23T21:31:49.982Z,10.43
2022-11-23T21:34:25.819Z,10.44
2022-11-23T21:36:58.534Z,10.42
2022-11-23T21:39:33.097Z,10.40
2022-11-23T21:42:05.747Z,10.54
2022-11-23T21:44:38.239Z,10.52
2022-11-23T21:47:10.844Z,10.46
2022-11-23T21:49:44.888Z,10.40
2022-11-23T21:52:18.865Z,10.44
2022-11-23T21:54:51.429Z,10.41
2022-11-23T21:57:24.126Z,10.54
2022-11-23T21:59:57.110Z,10.51
2022-11-23T22:02:29.736Z,10.47
2022-11-23T22:05:03.922Z,10.58
2022-11-23T22:07:36.684Z,10.52
2022-11-23T22:10:09.723Z,10.53
2022-11-23T22:12:42.506Z,10.45
2022-11-23T22:15:15.499Z,10.46
2022-11-23T22:17:48.199Z,10.49
2022-11-23T22:20:22.269Z,10.47
2022-11-23T22:22:54.896Z,10.55
2022-11-23T22:25:27.646Z,10.49
2022-11-23T22:28:00.774Z,10.56
2022-11-23T22:30:39.519Z,10.38
2022-11-23T22:33:13.404Z,10.48
2022-11-23T22:35:47.426Z,10.58
2022-11-23T22:38:20.470Z,10.58
2022-11-23T22:40:53.468Z,10.57
2022-11-23T22:43:26.259Z,10.56
2022-11-23T22:46:05.511Z,10.60
2022-11-23T22:48:38.883Z,10.69
2022-11-23T22:51:13.812Z,10.71
2022-11-23T22:53:46.840Z,10.65
2022-11-23T22:56:20.275Z,10.67
2022-11-23T22:58:52.976Z,10.70
2022-11-23T23:01:28.022Z,10.72
2022-11-23T23:04:04.271Z,10.73
2022-11-23T23:06:38.947Z,10.81
2022-11-23T23:09:11.731Z,10.74
2022-11-23T23:11:44.469Z,10.73
2022-11-23T23:14:17.597Z,10.71
2022-11-23T23:16:50.643Z,10.78
2022-11-23T23:19:25.948Z,10.79
2022-11-23T23:22:00.016Z,10.81
2022-11-23T23:24:33.257Z,10.79
2022-11-23T23:27:06.036Z,10.79
2022-11-23T23:29:39.606Z,10.84
2022-11-23T23:32:13.824Z,10.88
2022-11-23T23:34:46.635Z,10.87
2022-11-23T23:37:21.280Z,10.78
2022-11-23T23:39:53.878Z,10.68
2022-11-23T23:42:26.680Z,10.68
2022-11-23T23:44:59.650Z,10.70
2022-11-23T23:47:32.832Z,10.75
2022-11-23T23:50:05.869Z,10.66
2022-11-23T23:52:40.643Z,10.71
2022-11-23T23:55:13.334Z,10.67
2022-11-23T23:57:45.954Z,10.69
